Terminal Aerodrome Forecast
Issued by NWS

Home | Current Version | Previous Version | Text Only | Print | Product List | Glossary On
Versions: 1 2 3 4 5 6 7 8 9 10 11 12 13 14 15 16 17 18
000
FTUS44 KHGX 262016 AAA
TAFSGR
TAF AMD
KSGR 262016Z 2620/2718 25008G14KT P6SM BKN040 BKN050
     FM262300 31018KT P6SM FEW070 SCT250
     FM270300 34013KT P6SM SKC
     FM271200 06007KT P6SM FEW250
     FM271500 14007KT P6SM FEW250=

USA.gov is the U.S. government's official web portal to all federal, state and local government web resources and services.